Vernal Regional Airport
KVEL : now visible

Airfield :











YOU CAN JOIN US ON...

 
LOGIN :

Register | Disclaimer

   EN    FR    IT 

 









Legend :    VFR   Marginal VFR   IFR   Intensive IFR   Very Intensive IFR
Visi :
Ceiling :
>= 8 km
>= 3000ft
5 to 8 km
1000 to 3000 ft
1500m to 5 km
500 to 1000 ft
800 to 1500m
200 to 500 ft
< 800m
< 200 ft
Symbols :   Thunderstorms  Fog  Heavy snow  Heavy precipitations  Wind > 20 kt







- Airport Elevation : 5278 ft


KVEL - Vernal Regional

CURRENT METAR :
  • 190053Z AUTO 00000KT 10SM BKN110 06/M04 A3015 RMK AO2 SLP229 T00611039

EXPIRED METARs :
  • 182353Z AUTO 00000KT 10SM OVC110 07/M05 A3015 RMK AO2 SLP224 T00721050 10078 20033 56009
  • 182253Z AUTO 25003KT 10SM CLR 06/M05 A3016 RMK AO2 SLP225 T00611050

TAF KVEL
Valid from the 19 at 00:00 until the 20 at 00:00 UTC


182339Z 1900/1924 25003KT P6SM FEW090 OVC150
FM191300 VRB03KT P6SM SCT150
FM191700 08005KT P6SM SCT200
FM192300 06006KT P6SM SCT250
KZLC FIR / North America



MET'MAP, your aeronautical weather chart ! - Copyright ORBIFLY December 2007 - Disclaimer

ORBIFLY MET'MAP TEAM :

Programming & Development : Alexandra Zaïnal
Concept & Development : Baudouin d'Aumeries
Co-Development & Prog : Marc-Olivier Méhu
Technical & hardware support : Manuel Goepfert

Contact : metmap@orbifly.com




SOURCES & CREDITS :

   NOAA       Earth
Advisory